sensor_id;sensor_type;location;lat;lon;timestamp;pressure;altitude;pressure_sealevel;temperature;humidity
69909;BME280;57190;47.918;8.112;2023-04-16T00:05:22;90707.56;;;4.00;83.87
69909;BME280;57190;47.918;8.112;2023-04-16T00:07:50;90707.56;;;4.00;84.25
69909;BME280;57190;47.918;8.112;2023-04-16T00:10:20;90710.69;;;3.97;84.56
69909;BME280;57190;47.918;8.112;2023-04-16T00:12:45;90708.16;;;4.02;84.51
69909;BME280;57190;47.918;8.112;2023-04-16T00:15:11;90710.53;;;4.04;84.12
69909;BME280;57190;47.918;8.112;2023-04-16T00:17:36;90708.59;;;3.99;84.32
69909;BME280;57190;47.918;8.112;2023-04-16T00:20:04;90707.69;;;4.05;84.38
69909;BME280;57190;47.918;8.112;2023-04-16T00:22:34;90705.38;;;4.09;83.93
69909;BME280;57190;47.918;8.112;2023-04-16T00:24:59;90705.38;;;4.09;84.10
69909;BME280;57190;47.918;8.112;2023-04-16T00:27:24;90705.72;;;4.13;84.00
69909;BME280;57190;47.918;8.112;2023-04-16T00:29:50;90708.25;;;4.07;84.22
69909;BME280;57190;47.918;8.112;2023-04-16T00:32:16;90709.63;;;4.10;84.46
69909;BME280;57190;47.918;8.112;2023-04-16T00:34:41;90706.19;;;4.09;84.49
69909;BME280;57190;47.918;8.112;2023-04-16T00:37:07;90712.03;;;4.12;83.88
69909;BME280;57190;47.918;8.112;2023-04-16T00:39:32;90709.41;;;4.12;84.09
69909;BME280;57190;47.918;8.112;2023-04-16T00:42:01;90704.03;;;4.06;84.24
69909;BME280;57190;47.918;8.112;2023-04-16T00:44:29;90707.22;;;4.08;84.39
69909;BME280;57190;47.918;8.112;2023-04-16T00:46:56;90705.84;;;4.06;84.92
69909;BME280;57190;47.918;8.112;2023-04-16T00:49:22;90702.41;;;4.05;85.32
69909;BME280;57190;47.918;8.112;2023-04-16T00:51:48;90718.81;;;4.07;84.92
69909;BME280;57190;47.918;8.112;2023-04-16T00:54:14;90706.66;;;4.06;85.16
69909;BME280;57190;47.918;8.112;2023-04-16T00:56:40;90703.44;;;4.04;85.84
69909;BME280;57190;47.918;8.112;2023-04-16T00:59:06;90709.31;;;4.06;85.94
69909;BME280;57190;47.918;8.112;2023-04-16T01:01:31;90705.38;;;4.09;85.95
69909;BME280;57190;47.918;8.112;2023-04-16T01:03:57;90714.09;;;4.09;86.17
69909;BME280;57190;47.918;8.112;2023-04-16T01:06:22;90712.50;;;4.08;86.58
69909;BME280;57190;47.918;8.112;2023-04-16T01:08:48;90706.75;;;4.12;85.80
69909;BME280;57190;47.918;8.112;2023-04-16T01:11:14;90709.41;;;4.12;86.16
69909;BME280;57190;47.918;8.112;2023-04-16T01:13:40;90707.78;;;4.11;86.47
69909;BME280;57190;47.918;8.112;2023-04-16T01:16:07;90718.09;;;4.12;86.45
69909;BME280;57190;47.918;8.112;2023-04-16T01:18:33;90720.75;;;4.12;85.86
69909;BME280;57190;47.918;8.112;2023-04-16T01:20:59;90713.66;;;4.13;86.24
69909;BME280;57190;47.918;8.112;2023-04-16T01:23:25;90712.63;;;4.14;86.24
69909;BME280;57190;47.918;8.112;2023-04-16T01:25:50;90715.47;;;4.12;86.17
69909;BME280;57190;47.918;8.112;2023-04-16T01:28:16;90718.09;;;4.12;85.80
69909;BME280;57190;47.918;8.112;2023-04-16T01:30:42;90725.13;;;4.06;86.16
69909;BME280;57190;47.918;8.112;2023-04-16T01:33:12;90718.00;;;4.07;85.96
69909;BME280;57190;47.918;8.112;2023-04-16T01:35:38;90725.69;;;4.08;85.65
69909;BME280;57190;47.918;8.112;2023-04-16T01:38:06;90718.59;;;4.09;85.98
69909;BME280;57190;47.918;8.112;2023-04-16T01:40:32;90722.59;;;4.12;85.83
69909;BME280;57190;47.918;8.112;2023-04-16T01:42:58;90728.13;;;4.10;86.15
69909;BME280;57190;47.918;8.112;2023-04-16T01:45:24;90724.31;;;4.06;86.26
69909;BME280;57190;47.918;8.112;2023-04-16T01:47:50;90727.78;;;4.06;86.04
69909;BME280;57190;47.918;8.112;2023-04-16T01:50:17;90727.31;;;4.09;86.30
69909;BME280;57190;47.918;8.112;2023-04-16T01:52:42;90721.00;;;4.11;86.55
69909;BME280;57190;47.918;8.112;2023-04-16T01:55:08;90735.22;;;4.09;86.79
69909;BME280;57190;47.918;8.112;2023-04-16T01:57:34;90728.66;;;4.12;86.73
69909;BME280;57190;47.918;8.112;2023-04-16T01:59:59;90732.72;;;4.15;86.53
69909;BME280;57190;47.918;8.112;2023-04-16T02:02:25;90729.50;;;4.13;86.48
69909;BME280;57190;47.918;8.112;2023-04-16T02:04:53;90740.28;;;4.11;86.72
69909;BME280;57190;47.918;8.112;2023-04-16T02:07:19;90736.25;;;4.08;86.79
69909;BME280;57190;47.918;8.112;2023-04-16T02:09:44;90733.41;;;4.10;86.74
69909;BME280;57190;47.918;8.112;2023-04-16T02:12:10;90739.47;;;4.11;87.03
69909;BME280;57190;47.918;8.112;2023-04-16T02:14:36;90738.09;;;4.08;87.31
69909;BME280;57190;47.918;8.112;2023-04-16T02:17:01;90736.81;;;4.11;86.66
69909;BME280;57190;47.918;8.112;2023-04-16T02:19:27;90735.22;;;4.09;86.79
69909;BME280;57190;47.918;8.112;2023-04-16T02:21:53;90738.44;;;4.12;87.13
69909;BME280;57190;47.918;8.112;2023-04-16T02:24:20;90738.78;;;4.15;86.44
69909;BME280;57190;47.918;8.112;2023-04-16T02:26:46;90734.75;;;4.13;86.38
69909;BME280;57190;47.918;8.112;2023-04-16T02:29:11;90733.41;;;4.10;86.61
69909;BME280;57190;47.918;8.112;2023-04-16T02:31:37;90746.25;;;4.06;86.68
69909;BME280;57190;47.918;8.112;2023-04-16T02:34:03;90744.06;;;4.03;86.48
69909;BME280;57190;47.918;8.112;2023-04-16T02:36:29;90749.25;;;3.98;86.42
69909;BME280;57190;47.918;8.112;2023-04-16T02:38:56;90745.44;;;4.06;86.85
69909;BME280;57190;47.918;8.112;2023-04-16T02:41:22;90744.84;;;4.04;86.76
69909;BME280;57190;47.918;8.112;2023-04-16T02:43:47;90745.09;;;4.02;87.10
69909;BME280;57190;47.918;8.112;2023-04-16T02:46:13;90740.63;;;4.03;86.76
69909;BME280;57190;47.918;8.112;2023-04-16T02:48:38;90751.53;;;4.06;86.63
69909;BME280;57190;47.918;8.112;2023-04-16T02:51:04;90751.28;;;4.08;86.78
69909;BME280;57190;47.918;8.112;2023-04-16T02:53:30;90752.44;;;4.12;86.40
69909;BME280;57190;47.918;8.112;2023-04-16T02:55:55;90749.69;;;4.07;86.64
69909;BME280;57190;47.918;8.112;2023-04-16T02:58:22;90742.22;;;4.04;86.63
69909;BME280;57190;47.918;8.112;2023-04-16T03:03:54;90738.00;;;4.03;87.10
69909;BME280;57190;47.918;8.112;2023-04-16T03:06:19;90743.81;;;4.05;87.46
69909;BME280;57190;47.918;8.112;2023-04-16T03:08:45;90745.44;;;4.06;87.71
69909;BME280;57190;47.918;8.112;2023-04-16T03:11:10;90743.63;;;4.06;87.77
69909;BME280;57190;47.918;8.112;2023-04-16T03:13:36;90751.53;;;4.06;88.29
69909;BME280;57190;47.918;8.112;2023-04-16T03:16:01;90747.28;;;4.05;87.98
69909;BME280;57190;47.918;8.112;2023-04-16T03:18:27;90742.78;;;4.06;88.34
69909;BME280;57190;47.918;8.112;2023-04-16T03:20:53;90735.69;;;4.06;88.54
69909;BME280;57190;47.918;8.112;2023-04-16T03:23:18;90740.75;;;4.08;88.12
69909;BME280;57190;47.918;8.112;2023-04-16T03:25:44;90734.75;;;4.13;87.99
69909;BME280;57190;47.918;8.112;2023-04-16T03:28:13;90744.28;;;4.14;88.39
69909;BME280;57190;47.918;8.112;2023-04-16T03:30:39;90747.72;;;4.14;87.94
69909;BME280;57190;47.918;8.112;2023-04-16T03:33:04;90743.13;;;4.09;87.89
69909;BME280;57190;47.918;8.112;2023-04-16T03:35:30;90745.19;;;4.07;88.02
69909;BME280;57190;47.918;8.112;2023-04-16T03:37:55;90748.91;;;4.06;88.44
69909;BME280;57190;47.918;8.112;2023-04-16T03:40:21;90744.31;;;4.02;88.22
69909;BME280;57190;47.918;8.112;2023-04-16T03:42:48;90748.56;;;4.03;88.35
69909;BME280;57190;47.918;8.112;2023-04-16T03:45:14;90749.59;;;4.02;88.01
69909;BME280;57190;47.918;8.112;2023-04-16T03:47:39;90753.47;;;3.99;88.85
69909;BME280;57190;47.918;8.112;2023-04-16T03:50:05;90754.03;;;4.01;88.44
69909;BME280;57190;47.918;8.112;2023-04-16T03:52:30;90748.19;;;3.99;88.80
69909;BME280;57190;47.918;8.112;2023-04-16T03:54:56;90745.00;;;3.97;89.30
69909;BME280;57190;47.918;8.112;2023-04-16T03:57:22;90754.28;;;4.00;89.00
69909;BME280;57190;47.918;8.112;2023-04-16T03:59:53;90748.19;;;3.99;89.50
69909;BME280;57190;47.918;8.112;2023-04-16T04:02:18;90756.09;;;3.99;89.27
69909;BME280;57190;47.918;8.112;2023-04-16T04:04:44;90747.16;;;4.00;89.23
69909;BME280;57190;47.918;8.112;2023-04-16T04:07:10;90744.84;;;4.04;89.40
69909;BME280;57190;47.918;8.112;2023-04-16T04:09:35;90756.00;;;4.06;89.89
69909;BME280;57190;47.918;8.112;2023-04-16T04:12:00;90747.72;;;4.02;89.56
69909;BME280;57190;47.918;8.112;2023-04-16T04:14:26;90748.75;;;4.01;89.38
69909;BME280;57190;47.918;8.112;2023-04-16T04:16:51;90750.38;;;4.02;89.93
69909;BME280;57190;47.918;8.112;2023-04-16T04:19:17;90753.59;;;4.04;89.59
69909;BME280;57190;47.918;8.112;2023-04-16T04:21:42;90748.91;;;4.06;89.71
69909;BME280;57190;47.918;8.112;2023-04-16T04:24:08;90751.19;;;4.03;89.49
69909;BME280;57190;47.918;8.112;2023-04-16T04:26:33;90755.75;;;4.07;89.44
69909;BME280;57190;47.918;8.112;2023-04-16T04:28:59;90760.25;;;4.07;89.63
69909;BME280;57190;47.918;8.112;2023-04-16T04:31:24;90762.31;;;4.05;88.99
69909;BME280;57190;47.918;8.112;2023-04-16T04:33:49;90767.03;;;4.03;89.38
69909;BME280;57190;47.918;8.112;2023-04-16T04:36:15;90764.25;;;3.98;89.00
69909;BME280;57190;47.918;8.112;2023-04-16T04:38:40;90768.50;;;3.99;89.18
69909;BME280;57190;47.918;8.112;2023-04-16T04:41:06;90781.38;;;3.95;89.40
69909;BME280;57190;47.918;8.112;2023-04-16T04:43:31;90773.88;;;3.92;89.09
69909;BME280;57190;47.918;8.112;2023-04-16T04:45:57;90772.63;;;3.94;89.53
69909;BME280;57190;47.918;8.112;2023-04-16T04:48:22;90782.97;;;3.96;89.02
69909;BME280;57190;47.918;8.112;2023-04-16T04:50:51;90782.38;;;3.94;89.36
69909;BME280;57190;47.918;8.112;2023-04-16T04:53:17;90781.25;;;3.90;89.61
69909;BME280;57190;47.918;8.112;2023-04-16T04:55:42;90787.44;;;3.96;90.03
69909;BME280;57190;47.918;8.112;2023-04-16T04:58:08;90787.78;;;3.99;89.69
69909;BME280;57190;47.918;8.112;2023-04-16T05:00:34;90793.28;;;3.98;89.94
69909;BME280;57190;47.918;8.112;2023-04-16T05:03:19;90799.72;;;4.02;90.04
69909;BME280;57190;47.918;8.112;2023-04-16T05:05:46;90797.09;;;4.02;90.09
69909;BME280;57190;47.918;8.112;2023-04-16T05:08:11;90792.84;;;4.01;90.13
69909;BME280;57190;47.918;8.112;2023-04-16T05:10:37;90804.44;;;4.00;89.83
69909;BME280;57190;47.918;8.112;2023-04-16T05:13:02;90797.78;;;3.97;90.01
69909;BME280;57190;47.918;8.112;2023-04-16T05:15:28;90808.88;;;3.99;89.83
69909;BME280;57190;47.918;8.112;2023-04-16T05:17:53;90809.94;;;3.98;89.96
69909;BME280;57190;47.918;8.112;2023-04-16T05:20:21;90805.22;;;4.00;89.53
69909;BME280;57190;47.918;8.112;2023-04-16T05:22:48;90817.97;;;4.03;89.06
69909;BME280;57190;47.918;8.112;2023-04-16T05:25:14;90808.69;;;4.01;89.17
69909;BME280;57190;47.918;8.112;2023-04-16T05:27:39;90806.63;;;4.03;89.33
69909;BME280;57190;47.918;8.112;2023-04-16T05:30:06;90810.28;;;4.02;89.58
69909;BME280;57190;47.918;8.112;2023-04-16T05:32:31;90810.84;;;4.04;89.48
69909;BME280;57190;47.918;8.112;2023-04-16T05:34:57;90809.25;;;4.03;89.42
69909;BME280;57190;47.918;8.112;2023-04-16T05:37:22;90817.53;;;4.06;89.11
69909;BME280;57190;47.918;8.112;2023-04-16T05:39:47;90822.22;;;4.04;89.16
69909;BME280;57190;47.918;8.112;2023-04-16T05:42:13;90815.91;;;4.05;88.99
69909;BME280;57190;47.918;8.112;2023-04-16T05:44:39;90820.97;;;4.07;89.12
69909;BME280;57190;47.918;8.112;2023-04-16T05:47:05;90823.59;;;4.07;88.86
69909;BME280;57190;47.918;8.112;2023-04-16T05:49:33;90826.47;;;4.05;88.79
69909;BME280;57190;47.918;8.112;2023-04-16T05:51:59;90828.53;;;4.03;89.01
69909;BME280;57190;47.918;8.112;2023-04-16T05:54:25;90830.38;;;4.03;89.15
69909;BME280;57190;47.918;8.112;2023-04-16T05:56:50;90837.81;;;4.06;88.63
69909;BME280;57190;47.918;8.112;2023-04-16T05:59:15;90838.50;;;4.01;88.70
69909;BME280;57190;47.918;8.112;2023-04-16T06:05:03;90844.28;;;4.10;88.05
69909;BME280;57190;47.918;8.112;2023-04-16T06:07:28;90846.44;;;4.13;88.22
69909;BME280;57190;47.918;8.112;2023-04-16T06:09:54;90848.88;;;4.15;88.09
69909;BME280;57190;47.918;8.112;2023-04-16T06:12:20;90847.59;;;4.17;87.88
69909;BME280;57190;47.918;8.112;2023-04-16T06:14:45;90851.84;;;4.18;87.84
69909;BME280;57190;47.918;8.112;2023-04-16T06:17:11;90853.47;;;4.19;87.60
69909;BME280;57190;47.918;8.112;2023-04-16T06:19:36;90852.63;;;4.19;87.40
69909;BME280;57190;47.918;8.112;2023-04-16T06:22:01;90846.91;;;4.22;87.28
69909;BME280;57190;47.918;8.112;2023-04-16T06:24:28;90850.94;;;4.24;nan
69909;BME280;57190;47.918;8.112;2023-04-16T06:26:54;90849.09;;;4.25;87.12
69909;BME280;57190;47.918;8.112;2023-04-16T06:29:19;90856.56;;;4.28;87.11
69909;BME280;57190;47.918;8.112;2023-04-16T06:31:45;90853.69;;;4.30;86.55
69909;BME280;57190;47.918;8.112;2023-04-16T06:34:10;90852.88;;;4.29;86.55
69909;BME280;57190;47.918;8.112;2023-04-16T06:36:36;90850.81;;;4.31;86.72
69909;BME280;57190;47.918;8.112;2023-04-16T06:39:01;90864.03;;;4.31;86.44
69909;BME280;57190;47.918;8.112;2023-04-16T06:41:27;90858.50;;;4.33;86.38
69909;BME280;57190;47.918;8.112;2023-04-16T06:43:52;90866.66;;;4.31;86.66
69909;BME280;57190;47.918;8.112;2023-04-16T06:46:18;90869.41;;;4.36;86.33
69909;BME280;57190;47.918;8.112;2023-04-16T06:48:44;90874.47;;;4.38;86.22
69909;BME280;57190;47.918;8.112;2023-04-16T06:51:09;90877.09;;;4.38;86.40
69909;BME280;57190;47.918;8.112;2023-04-16T06:53:36;90876.41;;;4.43;86.00
69909;BME280;57190;47.918;8.112;2023-04-16T06:56:01;90879.41;;;4.46;85.82
69909;BME280;57190;47.918;8.112;2023-04-16T06:58:27;90882.88;;;4.47;86.02
69909;BME280;57190;47.918;8.112;2023-04-16T07:00:52;90875.38;;;4.44;86.00
69909;BME280;57190;47.918;8.112;2023-04-16T07:03:18;90875.16;;;4.45;86.08
69909;BME280;57190;47.918;8.112;2023-04-16T07:05:43;90885.50;;;4.47;85.88
69909;BME280;57190;47.918;8.112;2023-04-16T07:08:09;90875.72;;;4.47;86.07
69909;BME280;57190;47.918;8.112;2023-04-16T07:10:35;90878.03;;;4.44;86.10
69909;BME280;57190;47.918;8.112;2023-04-16T07:13:00;90874.69;;;4.48;85.78
69909;BME280;57190;47.918;8.112;2023-04-16T07:15:26;90878.50;;;4.52;85.85
69909;BME280;57190;47.918;8.112;2023-04-16T07:17:51;90878.38;;;4.59;85.59
69909;BME280;57190;47.918;8.112;2023-04-16T07:20:17;90876.66;;;4.53;85.76
69909;BME280;57190;47.918;8.112;2023-04-16T07:22:42;90879.63;;;4.56;85.33
69909;BME280;57190;47.918;8.112;2023-04-16T07:25:08;90885.50;;;4.59;85.63
69909;BME280;57190;47.918;8.112;2023-04-16T07:27:34;90880.56;;;4.50;85.43
69909;BME280;57190;47.918;8.112;2023-04-16T07:29:59;90882.38;;;4.62;85.33
69909;BME280;57190;47.918;8.112;2023-04-16T07:32:25;90891.03;;;4.69;85.60
69909;BME280;57190;47.918;8.112;2023-04-16T07:34:50;90892.63;;;4.70;85.11
69909;BME280;57190;47.918;8.112;2023-04-16T07:37:16;90887.34;;;4.70;84.96
69909;BME280;57190;47.918;8.112;2023-04-16T07:39:41;90889.50;;;4.73;84.70
69909;BME280;57190;47.918;8.112;2023-04-16T07:42:07;90891.38;;;4.72;84.90
69909;BME280;57190;47.918;8.112;2023-04-16T07:44:32;90889.28;;;4.75;84.68
69909;BME280;57190;47.918;8.112;2023-04-16T07:46:58;90894.09;;;4.78;85.02
69909;BME280;57190;47.918;8.112;2023-04-16T07:49:23;90892.50;;;4.77;84.67
69909;BME280;57190;47.918;8.112;2023-04-16T07:51:48;90895.47;;;4.80;84.84
69909;BME280;57190;47.918;8.112;2023-04-16T07:54:14;90892.97;;;4.85;84.45
69909;BME280;57190;47.918;8.112;2023-04-16T07:56:39;90894.44;;;4.81;84.46
69909;BME280;57190;47.918;8.112;2023-04-16T07:59:05;90905.59;;;4.83;84.81
69909;BME280;57190;47.918;8.112;2023-04-16T08:01:31;90908.34;;;4.88;84.40
69909;BME280;57190;47.918;8.112;2023-04-16T08:03:56;90907.31;;;4.90;84.79
69909;BME280;57190;47.918;8.112;2023-04-16T08:06:22;90908.34;;;4.88;84.69
69909;BME280;57190;47.918;8.112;2023-04-16T08:08:48;90908.59;;;4.87;84.18
69909;BME280;57190;47.918;8.112;2023-04-16T08:11:13;90916.75;;;4.85;84.37
69909;BME280;57190;47.918;8.112;2023-04-16T08:13:39;90918.47;;;4.80;84.29
69909;BME280;57190;47.918;8.112;2023-04-16T08:16:05;90915.25;;;4.78;84.80
69909;BME280;57190;47.918;8.112;2023-04-16T08:18:31;90922.94;;;4.79;84.55
69909;BME280;57190;47.918;8.112;2023-04-16T08:20:56;90926.66;;;4.78;84.32
69909;BME280;57190;47.918;8.112;2023-04-16T08:23:22;90924.78;;;4.79;85.07
69909;BME280;57190;47.918;8.112;2023-04-16T08:25:47;90932.72;;;4.79;85.19
69909;BME280;57190;47.918;8.112;2023-04-16T08:28:13;90939.72;;;4.85;84.83
69909;BME280;57190;47.918;8.112;2023-04-16T08:30:38;90941.34;;;4.86;84.62
69909;BME280;57190;47.918;8.112;2023-04-16T08:33:04;90934.22;;;4.86;85.10
69909;BME280;57190;47.918;8.112;2023-04-16T08:35:29;90944.31;;;4.90;85.19
69909;BME280;57190;47.918;8.112;2023-04-16T08:37:55;90942.16;;;4.86;84.86
69909;BME280;57190;47.918;8.112;2023-04-16T08:40:26;90942.94;;;4.87;84.99
69909;BME280;57190;47.918;8.112;2023-04-16T08:42:54;90946.16;;;4.89;85.24
69909;BME280;57190;47.918;8.112;2023-04-16T08:45:25;90940.97;;;4.94;84.36
69909;BME280;57190;47.918;8.112;2023-04-16T08:47:51;90943.03;;;4.92;84.93
69909;BME280;57190;47.918;8.112;2023-04-16T08:50:22;90950.75;;;4.94;84.45
69909;BME280;57190;47.918;8.112;2023-04-16T08:52:59;90944.31;;;4.90;84.80
69909;BME280;57190;47.918;8.112;2023-04-16T08:55:48;90945.47;;;4.94;85.15
69909;BME280;57190;47.918;8.112;2023-04-16T09:00:42;90948.56;;;5.02;84.14
69909;BME280;57190;47.918;8.112;2023-04-16T09:03:08;90953.16;;;5.07;84.25
69909;BME280;57190;47.918;8.112;2023-04-16T09:05:37;90954.06;;;5.13;83.99
69909;BME280;57190;47.918;8.112;2023-04-16T09:08:04;90949.56;;;5.25;83.60
69909;BME280;57190;47.918;8.112;2023-04-16T09:10:31;90954.63;;;5.39;83.06
69909;BME280;57190;47.918;8.112;2023-04-16T09:12:57;90956.69;;;5.37;83.12
69909;BME280;57190;47.918;8.112;2023-04-16T09:15:23;90958.75;;;5.34;83.25
69909;BME280;57190;47.918;8.112;2023-04-16T09:17:50;90967.47;;;5.47;83.05
69909;BME280;57190;47.918;8.112;2023-04-16T09:20:17;90960.31;;;5.59;83.28
69909;BME280;57190;47.918;8.112;2023-04-16T09:22:43;90956.03;;;5.70;82.62
69909;BME280;57190;47.918;8.112;2023-04-16T09:25:09;90969.81;;;5.72;82.04
69909;BME280;57190;47.918;8.112;2023-04-16T09:27:35;90967.19;;;5.72;82.02
69909;BME280;57190;47.918;8.112;2023-04-16T09:30:26;90971.09;;;5.70;81.63
69909;BME280;57190;47.918;8.112;2023-04-16T09:33:11;90969.72;;;5.67;82.01
69909;BME280;57190;47.918;8.112;2023-04-16T09:35:48;90966.06;;;5.68;82.56
69909;BME280;57190;47.918;8.112;2023-04-16T09:38:14;90972.84;;;5.64;83.23
69909;BME280;57190;47.918;8.112;2023-04-16T09:40:40;90971.25;;;5.51;82.72
69909;BME280;57190;47.918;8.112;2023-04-16T09:43:16;90970.50;;;5.39;83.37
69909;BME280;57190;47.918;8.112;2023-04-16T09:45:52;90969.34;;;5.34;83.19
69909;BME280;57190;47.918;8.112;2023-04-16T09:48:31;90970.50;;;5.39;82.75
69909;BME280;57190;47.918;8.112;2023-04-16T09:50:58;90967.47;;;5.47;82.91
69909;BME280;57190;47.918;8.112;2023-04-16T09:53:25;90970.13;;;5.47;83.53
69909;BME280;57190;47.918;8.112;2023-04-16T09:55:52;90973.22;;;5.44;83.43
69909;BME280;57190;47.918;8.112;2023-04-16T09:58:20;90973.34;;;5.49;83.39
69909;BME280;57190;47.918;8.112;2023-04-16T10:00:45;90977.13;;;5.53;83.11
69909;BME280;57190;47.918;8.112;2023-04-16T10:03:11;90979.16;;;5.63;82.87
69909;BME280;57190;47.918;8.112;2023-04-16T10:05:36;90977.56;;;5.74;82.10
69909;BME280;57190;47.918;8.112;2023-04-16T10:08:02;90981.78;;;5.87;82.85
69909;BME280;57190;47.918;8.112;2023-04-16T10:10:28;90976.09;;;5.95;82.79
69909;BME280;57190;47.918;8.112;2023-04-16T10:12:54;90987.41;;;5.90;82.07
69909;BME280;57190;47.918;8.112;2023-04-16T10:15:20;90984.88;;;5.83;82.34
69909;BME280;57190;47.918;8.112;2023-04-16T10:17:46;90991.53;;;5.86;82.39
69909;BME280;57190;47.918;8.112;2023-04-16T10:20:14;90990.03;;;5.90;82.37
69909;BME280;57190;47.918;8.112;2023-04-16T10:22:40;90992.31;;;5.98;82.30
69909;BME280;57190;47.918;8.112;2023-04-16T10:25:06;90992.53;;;6.09;82.39
69909;BME280;57190;47.918;8.112;2023-04-16T10:27:32;90992.31;;;6.10;81.28
69909;BME280;57190;47.918;8.112;2023-04-16T10:29:58;90993.13;;;5.99;81.69
69909;BME280;57190;47.918;8.112;2023-04-16T10:32:25;91002.25;;;6.03;82.05
69909;BME280;57190;47.918;8.112;2023-04-16T10:34:54;90998.91;;;5.96;82.22
69909;BME280;57190;47.918;8.112;2023-04-16T10:54:34;91003.59;;;5.53;83.27
69909;BME280;57190;47.918;8.112;2023-04-16T11:03:47;91000.00;;;5.59;83.04
69909;BME280;57190;47.918;8.112;2023-04-16T11:06:15;91004.50;;;5.59;83.20
69909;BME280;57190;47.918;8.112;2023-04-16T11:08:49;91005.53;;;5.58;83.16
69909;BME280;57190;47.918;8.112;2023-04-16T11:11:18;91001.16;;;5.63;82.79
69909;BME280;57190;47.918;8.112;2023-04-16T11:13:45;91005.28;;;5.71;83.27
69909;BME280;57190;47.918;8.112;2023-04-16T11:16:12;90995.59;;;5.77;82.01
69909;BME280;57190;47.918;8.112;2023-04-16T11:18:38;91001.09;;;5.87;82.56
69909;BME280;57190;47.918;8.112;2023-04-16T11:21:10;91000.06;;;5.88;81.25
69909;BME280;57190;47.918;8.112;2023-04-16T11:23:50;91003.38;;;5.95;81.38
69909;BME280;57190;47.918;8.112;2023-04-16T11:26:27;91010.59;;;6.12;81.45
69909;BME280;57190;47.918;8.112;2023-04-16T11:28:54;91005.50;;;6.22;81.80
69909;BME280;57190;47.918;8.112;2023-04-16T11:31:20;90991.41;;;6.34;80.65
69909;BME280;57190;47.918;8.112;2023-04-16T11:33:47;90993.09;;;6.40;80.83
69909;BME280;57190;47.918;8.112;2023-04-16T11:36:13;91001.44;;;6.32;80.46
69909;BME280;57190;47.918;8.112;2023-04-16T11:38:38;90999.50;;;6.27;80.60
69909;BME280;57190;47.918;8.112;2023-04-16T11:41:05;90999.16;;;6.23;81.00
69909;BME280;57190;47.918;8.112;2023-04-16T11:43:31;90999.56;;;6.32;81.27
69909;BME280;57190;47.918;8.112;2023-04-16T11:45:58;91000.84;;;6.29;81.09
69909;BME280;57190;47.918;8.112;2023-04-16T11:48:25;91002.03;;;6.22;81.54
69909;BME280;57190;47.918;8.112;2023-04-16T11:50:57;90995.84;;;6.16;81.83
69909;BME280;57190;47.918;8.112;2023-04-16T11:53:23;91001.03;;;6.11;81.55
69909;BME280;57190;47.918;8.112;2023-04-16T11:55:48;91007.53;;;6.03;82.15
69909;BME280;57190;47.918;8.112;2023-04-16T11:58:14;91004.06;;;5.91;81.92
69909;BME280;57190;47.918;8.112;2023-04-16T12:00:40;91005.03;;;5.85;82.36
69909;BME280;57190;47.918;8.112;2023-04-16T12:03:06;91011.00;;;5.80;82.47
69909;BME280;57190;47.918;8.112;2023-04-16T12:05:37;91012.28;;;5.77;82.05
69909;BME280;57190;47.918;8.112;2023-04-16T12:08:10;91021.97;;;5.72;81.97
69909;BME280;57190;47.918;8.112;2023-04-16T12:10:52;91016.34;;;5.68;82.44
69909;BME280;57190;47.918;8.112;2023-04-16T12:13:18;91020.03;;;5.67;82.99
69909;BME280;57190;47.918;8.112;2023-04-16T12:15:51;91028.19;;;5.65;82.36
69909;BME280;57190;47.918;8.112;2023-04-16T12:18:18;91034.97;;;5.61;83.23
69909;BME280;57190;47.918;8.112;2023-04-16T12:20:44;91032.94;;;5.51;82.37
69909;BME280;57190;47.918;8.112;2023-04-16T12:23:32;91037.38;;;5.63;83.08
69909;BME280;57190;47.918;8.112;2023-04-16T12:25:57;91028.91;;;5.61;83.37
69909;BME280;57190;47.918;8.112;2023-04-16T12:28:33;91040.19;;;5.56;83.58
69909;BME280;57190;47.918;8.112;2023-04-16T12:31:01;91046.25;;;5.57;83.21
69909;BME280;57190;47.918;8.112;2023-04-16T12:33:27;91050.28;;;5.59;83.08
69909;BME280;57190;47.918;8.112;2023-04-16T12:35:53;91042.69;;;5.63;82.96
69909;BME280;57190;47.918;8.112;2023-04-16T12:38:19;91058.81;;;5.61;82.58
69909;BME280;57190;47.918;8.112;2023-04-16T12:40:45;91052.47;;;5.62;82.87
69909;BME280;57190;47.918;8.112;2023-04-16T12:43:10;91055.81;;;5.58;83.03
69909;BME280;57190;47.918;8.112;2023-04-16T12:45:37;91055.03;;;5.57;82.66
69909;BME280;57190;47.918;8.112;2023-04-16T12:48:03;91049.84;;;5.50;83.13
69909;BME280;57190;47.918;8.112;2023-04-16T12:50:28;91057.69;;;5.45;83.02
69909;BME280;57190;47.918;8.112;2023-04-16T12:52:54;91060.19;;;5.40;82.90
69909;BME280;57190;47.918;8.112;2023-04-16T12:55:20;91048.94;;;5.33;83.37
69909;BME280;57190;47.918;8.112;2023-04-16T12:57:46;91049.16;;;5.31;83.17
69909;BME280;57190;47.918;8.112;2023-04-16T13:00:13;91056.63;;;5.34;83.74
69909;BME280;57190;47.918;8.112;2023-04-16T13:02:39;91049.97;;;5.20;82.95
69909;BME280;57190;47.918;8.112;2023-04-16T13:05:05;91050.66;;;5.15;83.54
69909;BME280;57190;47.918;8.112;2023-04-16T13:07:31;91046.19;;;5.16;83.81
69909;BME280;57190;47.918;8.112;2023-04-16T13:09:58;91050.53;;;5.22;83.65
69909;BME280;57190;47.918;8.112;2023-04-16T13:12:24;91046.97;;;5.28;83.61
69909;BME280;57190;47.918;8.112;2023-04-16T13:14:49;91044.09;;;5.30;84.07
69909;BME280;57190;47.918;8.112;2023-04-16T13:17:15;91051.47;;;5.28;84.63
69909;BME280;57190;47.918;8.112;2023-04-16T13:19:40;91042.94;;;5.38;83.55
69909;BME280;57190;47.918;8.112;2023-04-16T13:22:06;91045.69;;;5.43;83.96
69909;BME280;57190;47.918;8.112;2023-04-16T13:24:31;91048.59;;;5.41;83.41
69909;BME280;57190;47.918;8.112;2023-04-16T13:26:57;91046.88;;;5.35;83.54
69909;BME280;57190;47.918;8.112;2023-04-16T13:29:22;91054.91;;;5.40;83.50
69909;BME280;57190;47.918;8.112;2023-04-16T13:31:48;91049.03;;;5.38;83.25
69909;BME280;57190;47.918;8.112;2023-04-16T13:34:13;91052.16;;;5.35;83.23
69909;BME280;57190;47.918;8.112;2023-04-16T13:36:39;91056.63;;;5.34;83.96
69909;BME280;57190;47.918;8.112;2023-04-16T13:39:05;91054.81;;;5.35;83.55
69909;BME280;57190;47.918;8.112;2023-04-16T13:41:38;91051.34;;;5.34;83.54
69909;BME280;57190;47.918;8.112;2023-04-16T13:44:04;91049.97;;;5.32;83.06